createdAt,value
2019-03-03T00:01:23.198Z,3.45
2019-03-03T00:03:52.737Z,2.95
2019-03-03T00:06:22.217Z,3.30
2019-03-03T00:08:51.850Z,3.65
2019-03-03T00:11:21.367Z,4.28
2019-03-03T00:13:50.858Z,3.77
2019-03-03T00:16:20.353Z,4.70
2019-03-03T00:18:49.856Z,5.25
2019-03-03T00:21:19.330Z,5.47
2019-03-03T00:23:49.039Z,5.65
2019-03-03T00:26:18.511Z,5.45
2019-03-03T00:28:47.992Z,5.85
2019-03-03T00:31:19.776Z,7.35
2019-03-03T00:33:49.385Z,5.90
2019-03-03T00:36:19.138Z,7.53
2019-03-03T00:39:13.479Z,7.40
2019-03-03T00:42:00.632Z,7.00
2019-03-03T00:44:55.168Z,7.20
2019-03-03T00:47:52.623Z,6.83
2019-03-03T00:50:28.871Z,7.87
2019-03-03T00:53:06.583Z,7.60
2019-03-03T00:55:53.741Z,8.10
2019-03-03T00:58:33.281Z,7.08
2019-03-03T01:01:20.639Z,6.85
2019-03-03T01:04:18.051Z,8.98
2019-03-03T01:06:59.736Z,5.85
2019-03-03T01:09:51.263Z,6.25
2019-03-03T01:12:36.816Z,7.22
2019-03-03T01:15:16.685Z,6.05
2019-03-03T01:18:10.995Z,5.62
2019-03-03T01:21:02.291Z,5.40
2019-03-03T01:24:02.929Z,5.40
2019-03-03T01:26:32.410Z,4.75
2019-03-03T01:29:01.872Z,5.30
2019-03-03T01:31:31.412Z,5.55
2019-03-03T01:34:01.042Z,5.03
2019-03-03T01:36:30.551Z,4.85
2019-03-03T01:39:00.050Z,4.60
2019-03-03T01:41:29.666Z,4.87
2019-03-03T01:44:00.500Z,4.58
2019-03-03T01:46:30.040Z,3.55
2019-03-03T01:48:59.588Z,2.90
2019-03-03T01:51:29.110Z,4.40
2019-03-03T01:53:58.596Z,4.35
2019-03-03T01:56:28.116Z,4.25
2019-03-03T01:58:57.611Z,4.80
2019-03-03T02:01:27.123Z,3.65
2019-03-03T02:03:56.653Z,3.70
2019-03-03T02:06:26.115Z,3.98
2019-03-03T02:08:55.594Z,3.67
2019-03-03T02:11:27.147Z,2.95
2019-03-03T02:13:56.648Z,3.25
2019-03-03T02:16:26.331Z,3.60
2019-03-03T02:18:55.843Z,3.98
2019-03-03T02:21:25.279Z,4.40
2019-03-03T02:23:54.710Z,3.47
2019-03-03T02:26:24.144Z,3.15
2019-03-03T02:28:53.687Z,4.15
2019-03-03T02:31:23.170Z,3.40
2019-03-03T02:33:52.823Z,2.95
2019-03-03T02:36:22.333Z,3.05
2019-03-03T02:38:51.876Z,2.95
2019-03-03T02:41:21.330Z,2.58
2019-03-03T02:43:50.867Z,3.40
2019-03-03T02:46:20.290Z,2.80
2019-03-03T02:48:49.770Z,3.00
2019-03-03T02:51:19.203Z,3.20
2019-03-03T02:53:48.787Z,3.42
2019-03-03T02:56:18.321Z,2.52
2019-03-03T02:58:47.875Z,2.50
2019-03-03T03:01:30.426Z,2.65
2019-03-03T03:03:59.927Z,2.50
2019-03-03T03:06:41.425Z,2.08
2019-03-03T03:09:28.003Z,3.17
2019-03-03T03:12:10.159Z,2.35
2019-03-03T03:14:57.984Z,3.50
2019-03-03T03:17:58.603Z,3.30
2019-03-03T03:20:50.136Z,3.17
2019-03-03T03:23:41.570Z,2.85
2019-03-03T03:26:37.766Z,2.40
2019-03-03T03:29:24.913Z,2.10
2019-03-03T03:32:22.582Z,2.27
2019-03-03T03:35:20.036Z,2.70
2019-03-03T03:38:26.667Z,2.85
2019-03-03T03:41:15.180Z,2.70
2019-03-03T03:44:12.675Z,2.95
2019-03-03T03:47:01.135Z,3.22
2019-03-03T03:49:45.429Z,3.25
2019-03-03T03:52:33.584Z,2.02
2019-03-03T03:55:31.220Z,2.85
2019-03-03T03:58:17.747Z,4.03
2019-03-03T04:01:15.110Z,3.33
2019-03-03T04:04:02.914Z,2.50
2019-03-03T04:06:50.131Z,2.15
2019-03-03T04:09:41.344Z,4.20
2019-03-03T04:12:25.882Z,3.37
2019-03-03T04:15:20.604Z,2.72
2019-03-03T04:18:04.774Z,3.25
2019-03-03T04:20:51.773Z,4.17
2019-03-03T04:23:33.396Z,3.55
2019-03-03T04:26:20.751Z,2.65
2019-03-03T04:29:13.219Z,3.45
2019-03-03T04:32:00.328Z,3.20
2019-03-03T04:34:52.032Z,3.50
2019-03-03T04:37:38.091Z,2.85
2019-03-03T04:40:13.175Z,3.52
2019-03-03T04:43:10.818Z,3.62
2019-03-03T04:46:05.548Z,3.15
2019-03-03T04:48:41.411Z,3.17
2019-03-03T04:51:28.212Z,3.22
2019-03-03T04:54:32.008Z,3.98
2019-03-03T04:57:09.059Z,3.72
2019-03-03T04:59:49.999Z,2.17
2019-03-03T05:02:30.185Z,4.30
2019-03-03T05:05:23.807Z,3.83
2019-03-03T05:08:24.922Z,2.70
2019-03-03T05:11:05.213Z,3.52
2019-03-03T05:13:43.604Z,3.17
2019-03-03T05:16:37.903Z,3.30
2019-03-03T05:19:30.181Z,3.75
2019-03-03T05:21:59.703Z,3.45
2019-03-03T05:24:34.320Z,4.00
2019-03-03T05:27:00.348Z,3.20
2019-03-03T05:29:30.060Z,3.83
2019-03-03T05:31:59.566Z,4.67
2019-03-03T05:34:29.100Z,3.45
2019-03-03T05:36:58.608Z,3.98
2019-03-03T05:39:28.023Z,5.17
2019-03-03T05:41:57.491Z,3.72
2019-03-03T05:44:26.969Z,4.37
2019-03-03T05:46:56.409Z,4.08
2019-03-03T05:49:25.867Z,4.08
2019-03-03T05:51:56.685Z,4.65
2019-03-03T05:54:26.203Z,4.40
2019-03-03T05:56:55.728Z,4.83
2019-03-03T05:59:25.250Z,5.67
2019-03-03T06:01:54.681Z,5.15
2019-03-03T06:04:24.426Z,4.45
2019-03-03T06:06:53.869Z,4.35
2019-03-03T06:09:23.347Z,6.50
2019-03-03T06:11:52.870Z,5.25
2019-03-03T06:14:22.395Z,4.62
2019-03-03T06:16:51.831Z,5.28
2019-03-03T06:19:21.366Z,4.62
2019-03-03T06:21:50.863Z,4.47
2019-03-03T06:24:20.297Z,6.22
2019-03-03T06:26:49.847Z,6.35
2019-03-03T06:29:19.274Z,6.40
2019-03-03T06:31:48.794Z,6.58
2019-03-03T06:34:18.345Z,5.62
2019-03-03T06:36:49.510Z,5.05
2019-03-03T06:39:19.041Z,5.30
2019-03-03T06:41:48.560Z,6.00
2019-03-03T06:44:18.028Z,6.87
2019-03-03T06:46:47.489Z,6.00
2019-03-03T06:49:17.160Z,6.50
2019-03-03T06:51:46.779Z,5.90
2019-03-03T06:54:16.265Z,5.50
2019-03-03T06:56:45.761Z,6.53
2019-03-03T06:59:15.260Z,4.85
2019-03-03T07:01:44.750Z,6.92
2019-03-03T07:04:14.252Z,5.17
2019-03-03T07:06:43.757Z,5.10
2019-03-03T07:09:13.234Z,5.50
2019-03-03T07:11:42.816Z,6.40
2019-03-03T07:14:12.285Z,5.80
2019-03-03T07:16:41.725Z,6.92
2019-03-03T07:19:11.223Z,5.80
2019-03-03T07:21:40.692Z,7.03
2019-03-03T07:24:10.199Z,7.15
2019-03-03T07:26:39.689Z,9.33
2019-03-03T07:29:09.218Z,7.22
2019-03-03T07:31:38.667Z,6.00
2019-03-03T07:34:08.197Z,6.62
2019-03-03T07:36:37.672Z,7.65
2019-03-03T07:39:16.956Z,7.60
2019-03-03T07:41:46.784Z,6.90
2019-03-03T07:44:16.290Z,8.23
2019-03-03T07:46:45.718Z,6.90
2019-03-03T07:49:15.262Z,8.45
2019-03-03T07:51:44.799Z,6.45
2019-03-03T07:54:14.426Z,9.75
2019-03-03T07:56:43.900Z,9.33
2019-03-03T07:59:13.614Z,10.20
2019-03-03T08:01:43.079Z,10.75
2019-03-03T08:04:12.748Z,9.53
2019-03-03T08:06:42.260Z,9.10
2019-03-03T08:09:12.367Z,9.75
2019-03-03T08:11:41.849Z,10.53
2019-03-03T08:14:11.377Z,11.03
2019-03-03T08:16:40.879Z,8.75
2019-03-03T08:19:10.420Z,12.05
2019-03-03T08:21:40.741Z,10.00
2019-03-03T08:24:10.414Z,12.88
2019-03-03T08:26:39.894Z,10.78
2019-03-03T08:29:10.015Z,10.98
2019-03-03T08:31:42.064Z,11.33
2019-03-03T08:34:11.840Z,13.05
2019-03-03T08:36:41.296Z,10.40
2019-03-03T08:39:10.954Z,10.38
2019-03-03T08:41:44.329Z,11.20
2019-03-03T08:44:17.890Z,12.03
2019-03-03T08:47:07.228Z,11.33
2019-03-03T08:49:58.770Z,10.80
2019-03-03T08:53:02.478Z,13.08
2019-03-03T08:55:44.177Z,10.08
2019-03-03T08:58:47.831Z,11.93
2019-03-03T09:01:37.819Z,10.38
2019-03-03T09:04:29.081Z,11.40
2019-03-03T09:07:23.748Z,11.00
2019-03-03T09:10:06.028Z,12.45
2019-03-03T09:13:00.768Z,9.53
2019-03-03T09:15:51.367Z,10.60
2019-03-03T09:18:39.051Z,11.33
2019-03-03T09:21:36.719Z,9.85
2019-03-03T09:24:21.903Z,9.93
2019-03-03T09:27:10.365Z,11.15
2019-03-03T09:30:14.213Z,9.88
2019-03-03T09:33:05.189Z,10.10
2019-03-03T09:35:54.071Z,11.53
2019-03-03T09:38:54.712Z,9.90
2019-03-03T09:41:49.311Z,11.25
2019-03-03T09:44:26.904Z,10.08
2019-03-03T09:47:13.781Z,11.63
2019-03-03T09:49:50.609Z,12.33
2019-03-03T09:52:27.950Z,12.15
2019-03-03T09:55:04.691Z,12.23
2019-03-03T09:57:53.067Z,12.47
2019-03-03T10:00:47.745Z,11.85
2019-03-03T10:03:41.911Z,11.65
2019-03-03T10:06:45.588Z,13.65
2019-03-03T10:09:34.060Z,11.50
2019-03-03T10:12:28.526Z,14.47
2019-03-03T10:15:13.553Z,15.68
2019-03-03T10:17:58.833Z,15.43
2019-03-03T10:20:45.913Z,13.85
2019-03-03T10:23:32.824Z,15.13
2019-03-03T10:26:30.951Z,18.15
2019-03-03T10:29:17.793Z,16.90
2019-03-03T10:32:06.308Z,17.02
2019-03-03T10:34:53.465Z,16.50
2019-03-03T10:37:41.933Z,12.50
2019-03-03T10:40:36.904Z,17.65
2019-03-03T10:43:20.281Z,20.10
2019-03-03T10:46:09.678Z,16.00
2019-03-03T10:48:56.559Z,20.23
2019-03-03T10:51:35.900Z,20.12
2019-03-03T10:54:36.776Z,19.20
2019-03-03T10:57:24.168Z,18.05
2019-03-03T11:00:05.822Z,18.05
2019-03-03T11:03:12.315Z,17.17
2019-03-03T11:05:59.407Z,17.50
2019-03-03T11:09:03.321Z,16.93
2019-03-03T11:12:01.155Z,17.25
2019-03-03T11:15:18.019Z,16.93
2019-03-03T11:18:01.091Z,16.95
2019-03-03T11:20:48.449Z,17.42
2019-03-03T11:23:43.010Z,16.75
2019-03-03T11:26:40.919Z,16.80
2019-03-03T11:29:41.849Z,15.80
2019-03-03T11:32:42.780Z,16.32
2019-03-03T11:35:33.978Z,15.55
2019-03-03T11:38:25.654Z,15.15
2019-03-03T11:41:03.594Z,17.70
2019-03-03T11:43:55.084Z,13.25
2019-03-03T11:46:52.715Z,14.15
2019-03-03T11:49:39.866Z,17.05
2019-03-03T11:52:26.439Z,7.95
2019-03-03T11:55:09.811Z,14.13
2019-03-03T11:57:52.457Z,14.87
2019-03-03T12:00:37.898Z,14.05
2019-03-03T12:03:17.437Z,13.93
2019-03-03T12:05:56.664Z,13.83
2019-03-03T12:08:36.103Z,15.35
2019-03-03T12:11:36.955Z,15.55
2019-03-03T12:14:20.374Z,16.25
2019-03-03T12:17:06.719Z,13.20
2019-03-03T12:19:51.998Z,11.50
2019-03-03T12:22:46.747Z,11.75
2019-03-03T12:25:35.142Z,11.03
2019-03-03T12:28:30.099Z,13.45
2019-03-03T12:31:17.384Z,13.62
2019-03-03T12:34:08.973Z,14.03
2019-03-03T12:36:57.469Z,12.50
2019-03-03T12:39:50.819Z,12.00
2019-03-03T12:42:39.266Z,12.35
2019-03-03T12:45:16.044Z,12.43
2019-03-03T12:48:04.665Z,12.98
2019-03-03T12:50:44.210Z,13.08
2019-03-03T12:53:32.713Z,12.40
2019-03-03T12:56:33.446Z,13.08
2019-03-03T12:59:10.911Z,13.15
2019-03-03T13:02:14.615Z,15.05
2019-03-03T13:04:50.333Z,15.08
2019-03-03T13:07:37.934Z,15.75
2019-03-03T13:10:26.828Z,15.80
2019-03-03T13:13:02.162Z,12.63
2019-03-03T13:15:49.495Z,15.35
2019-03-03T13:18:37.299Z,13.78
2019-03-03T13:21:24.600Z,13.25
2019-03-03T13:24:19.086Z,13.62
2019-03-03T13:27:07.629Z,11.65
2019-03-03T13:29:52.940Z,15.75
2019-03-03T13:32:44.482Z,15.28
2019-03-03T13:35:42.122Z,15.10
2019-03-03T13:38:22.627Z,15.68
2019-03-03T13:41:04.863Z,13.83
2019-03-03T13:43:34.543Z,14.53
2019-03-03T13:46:04.317Z,15.00
2019-03-03T13:48:34.030Z,13.80
2019-03-03T13:51:03.638Z,14.30
2019-03-03T13:53:33.377Z,14.20
2019-03-03T13:56:03.071Z,13.88
2019-03-03T13:58:32.766Z,14.95
2019-03-03T14:01:02.676Z,16.12
2019-03-03T14:03:32.247Z,12.88
2019-03-03T14:06:01.857Z,15.55
2019-03-03T14:08:31.496Z,12.45
2019-03-03T14:11:01.072Z,15.35
2019-03-03T14:13:30.887Z,14.95
2019-03-03T14:16:00.622Z,12.55
2019-03-03T14:18:30.357Z,13.50
2019-03-03T14:20:59.978Z,13.50
2019-03-03T14:23:29.644Z,13.00
2019-03-03T14:25:59.322Z,14.00
2019-03-03T14:28:29.224Z,14.03
2019-03-03T14:30:58.930Z,14.60
2019-03-03T14:33:28.520Z,14.00
2019-03-03T14:35:58.153Z,14.47
2019-03-03T14:38:27.771Z,11.55
2019-03-03T14:40:57.383Z,15.13
2019-03-03T14:43:28.154Z,13.93
2019-03-03T14:45:58.719Z,13.40
2019-03-03T14:48:28.530Z,11.18
2019-03-03T14:50:58.142Z,10.72
2019-03-03T14:53:27.879Z,8.35
2019-03-03T14:55:57.518Z,8.50
2019-03-03T14:58:27.191Z,7.97
2019-03-03T15:00:56.908Z,6.62
2019-03-03T15:03:26.519Z,6.58
2019-03-03T15:05:56.101Z,7.95
2019-03-03T15:08:25.620Z,7.17
2019-03-03T15:10:55.275Z,6.70
2019-03-03T15:13:25.386Z,5.72
2019-03-03T15:15:55.107Z,7.10
2019-03-03T15:18:25.845Z,5.65
2019-03-03T15:20:55.441Z,6.65
2019-03-03T15:23:25.081Z,7.00
2019-03-03T15:25:54.722Z,5.85
2019-03-03T15:28:27.271Z,5.85
2019-03-03T15:30:56.808Z,9.28
2019-03-03T15:33:27.276Z,7.85
2019-03-03T15:35:56.883Z,8.95
2019-03-03T15:38:26.435Z,8.85
2019-03-03T15:40:55.952Z,8.55
2019-03-03T15:43:25.520Z,8.88
2019-03-03T15:45:55.094Z,7.60
2019-03-03T15:48:24.923Z,7.10
2019-03-03T15:50:54.796Z,6.80
2019-03-03T15:53:24.483Z,8.63
2019-03-03T15:55:54.637Z,7.78
2019-03-03T15:58:24.195Z,9.13
2019-03-03T16:00:53.778Z,8.75
2019-03-03T16:03:23.310Z,8.85
2019-03-03T16:05:53.187Z,9.05
2019-03-03T16:08:22.636Z,9.13
2019-03-03T16:10:52.180Z,8.83
2019-03-03T16:13:21.847Z,7.78
2019-03-03T16:15:51.542Z,9.03
2019-03-03T16:18:21.032Z,9.00
2019-03-03T16:20:50.612Z,9.15
2019-03-03T16:23:20.040Z,7.75
2019-03-03T16:25:49.618Z,8.25
2019-03-03T16:28:19.182Z,6.87
2019-03-03T16:30:48.774Z,6.97
2019-03-03T16:33:20.816Z,4.95
2019-03-03T16:35:49.711Z,5.65
2019-03-03T16:38:19.323Z,6.28
2019-03-03T16:40:48.909Z,5.45
2019-03-03T16:43:18.551Z,5.08
2019-03-03T16:45:48.193Z,5.25
2019-03-03T16:48:17.974Z,5.00
2019-03-03T16:50:47.739Z,4.70
2019-03-03T16:53:17.245Z,5.15
2019-03-03T16:55:47.010Z,5.35
2019-03-03T16:58:16.640Z,5.97
2019-03-03T17:00:46.326Z,4.83
2019-03-03T17:03:17.315Z,4.65
2019-03-03T17:05:46.980Z,5.50
2019-03-03T17:08:16.501Z,3.77
2019-03-03T17:10:46.152Z,3.67
2019-03-03T17:13:15.632Z,4.37
2019-03-03T17:15:45.177Z,4.75
2019-03-03T17:18:15.057Z,4.90
2019-03-03T17:20:44.596Z,5.05
2019-03-03T17:23:14.607Z,3.85
2019-03-03T17:25:44.329Z,5.03
2019-03-03T17:28:14.304Z,4.20
2019-03-03T17:30:43.844Z,3.85
2019-03-03T17:33:14.815Z,4.40
2019-03-03T17:35:44.385Z,5.12
2019-03-03T17:38:14.062Z,4.87
2019-03-03T17:40:43.771Z,4.40
2019-03-03T17:43:13.457Z,3.92
2019-03-03T17:45:42.987Z,3.45
2019-03-03T17:48:12.654Z,3.77
2019-03-03T17:50:42.305Z,3.35
2019-03-03T17:53:12.086Z,4.47
2019-03-03T17:55:41.680Z,4.40
2019-03-03T17:58:11.444Z,3.52
2019-03-03T18:00:42.916Z,4.80
2019-03-03T18:03:12.467Z,4.90
2019-03-03T18:05:42.085Z,3.42
2019-03-03T18:08:12.018Z,5.08
2019-03-03T18:10:41.837Z,4.30
2019-03-03T18:13:11.568Z,3.92
2019-03-03T18:15:41.158Z,2.75
2019-03-03T18:18:10.891Z,3.30
2019-03-03T18:20:40.398Z,4.45
2019-03-03T18:23:10.879Z,5.00
2019-03-03T18:25:40.662Z,4.30
2019-03-03T18:28:13.959Z,4.22
2019-03-03T18:30:43.873Z,4.17
2019-03-03T18:33:14.052Z,4.50
2019-03-03T18:35:43.713Z,3.45
2019-03-03T18:38:14.811Z,4.03
2019-03-03T18:40:45.133Z,3.62
2019-03-03T18:43:14.942Z,3.30
2019-03-03T18:45:44.483Z,4.05
2019-03-03T18:48:14.173Z,3.95
2019-03-03T18:50:43.848Z,4.37
2019-03-03T18:53:13.848Z,3.87
2019-03-03T18:55:43.528Z,4.62
2019-03-03T18:58:13.278Z,3.20
2019-03-03T19:00:42.987Z,4.55
2019-03-03T19:03:12.665Z,3.45
2019-03-03T19:05:42.318Z,3.77
2019-03-03T19:08:11.974Z,3.47
2019-03-03T19:10:41.512Z,4.00
2019-03-03T19:13:11.091Z,4.58
2019-03-03T19:15:40.779Z,4.05
2019-03-03T19:18:10.274Z,4.50
2019-03-03T19:20:39.785Z,4.12
2019-03-03T19:23:09.586Z,3.90
2019-03-03T19:25:39.379Z,3.37
2019-03-03T19:28:09.131Z,4.33
2019-03-03T19:30:38.827Z,4.22
2019-03-03T19:33:12.193Z,4.40
2019-03-03T19:35:41.910Z,4.47
2019-03-03T19:38:11.618Z,3.25
2019-03-03T19:40:41.135Z,3.58
2019-03-03T19:43:10.815Z,4.20
2019-03-03T19:45:40.436Z,4.08
2019-03-03T19:48:10.859Z,5.67
2019-03-03T19:50:40.714Z,5.33
2019-03-03T19:53:10.373Z,3.87
2019-03-03T19:55:41.475Z,4.08
2019-03-03T19:58:11.220Z,4.72
2019-03-03T20:00:41.074Z,3.65
2019-03-03T20:03:10.875Z,4.47
2019-03-03T20:05:40.415Z,5.85
2019-03-03T20:08:10.168Z,3.70
2019-03-03T20:10:39.870Z,4.12
2019-03-03T20:13:09.637Z,4.03
2019-03-03T20:15:39.914Z,3.98
2019-03-03T20:18:09.956Z,3.85
2019-03-03T20:20:39.526Z,4.12
2019-03-03T20:23:09.143Z,3.15
2019-03-03T20:25:38.716Z,3.40
2019-03-03T20:28:08.952Z,4.62
2019-03-03T20:30:38.811Z,3.75
2019-03-03T20:33:08.455Z,3.98
2019-03-03T20:35:37.988Z,4.05
2019-03-03T20:38:07.481Z,3.92
2019-03-03T20:40:39.067Z,4.53
2019-03-03T20:43:08.278Z,3.85
2019-03-03T20:45:37.867Z,3.83
2019-03-03T20:48:07.947Z,3.33
2019-03-03T20:50:37.666Z,3.58
2019-03-03T20:53:07.123Z,4.78
2019-03-03T20:55:36.615Z,3.60
2019-03-03T20:58:06.191Z,3.70
2019-03-03T21:00:35.715Z,3.47
2019-03-03T21:03:05.175Z,3.47
2019-03-03T21:05:34.737Z,3.55
2019-03-03T21:08:04.316Z,3.70
2019-03-03T21:10:33.871Z,5.05
2019-03-03T21:13:03.533Z,3.37
2019-03-03T21:15:33.077Z,4.35
2019-03-03T21:18:02.553Z,3.58
2019-03-03T21:20:32.056Z,4.20
2019-03-03T21:23:01.547Z,4.12
2019-03-03T21:25:31.070Z,3.42
2019-03-03T21:28:00.679Z,3.70
2019-03-03T21:30:30.186Z,4.10
2019-03-03T21:32:59.743Z,3.92
2019-03-03T21:35:29.479Z,3.33
2019-03-03T21:37:59.236Z,4.08
2019-03-03T21:40:29.304Z,3.75
2019-03-03T21:42:58.836Z,3.55
2019-03-03T21:45:28.588Z,4.17
2019-03-03T21:47:58.603Z,3.50
2019-03-03T21:50:28.081Z,4.25
2019-03-03T21:52:57.671Z,3.45
2019-03-03T21:55:27.377Z,3.40
2019-03-03T21:57:56.957Z,4.55
2019-03-03T22:00:33.634Z,3.12
2019-03-03T22:03:03.153Z,3.98
2019-03-03T22:05:32.717Z,3.45
2019-03-03T22:08:02.256Z,4.62
2019-03-03T22:10:33.884Z,3.85
2019-03-03T22:13:11.163Z,3.30
2019-03-03T22:15:40.659Z,4.08
2019-03-03T22:18:10.175Z,2.75
2019-03-03T22:20:39.640Z,4.33
2019-03-03T22:23:09.234Z,4.12
2019-03-03T22:25:39.865Z,3.30
2019-03-03T22:28:09.331Z,4.60
2019-03-03T22:30:38.908Z,3.65
2019-03-03T22:33:08.431Z,3.72
2019-03-03T22:35:38.568Z,3.67
2019-03-03T22:38:08.113Z,3.60
2019-03-03T22:40:37.716Z,3.70
2019-03-03T22:43:09.453Z,3.62
2019-03-03T22:46:02.179Z,4.50
2019-03-03T22:48:31.681Z,2.22
2019-03-03T22:51:01.215Z,3.05
2019-03-03T22:53:41.998Z,3.60
2019-03-03T22:56:11.620Z,3.50
2019-03-03T22:58:41.081Z,3.02
2019-03-03T23:01:20.896Z,3.10
2019-03-03T23:04:19.845Z,2.90
2019-03-03T23:07:05.918Z,3.00
2019-03-03T23:10:12.423Z,2.87
2019-03-03T23:13:25.351Z,2.50
2019-03-03T23:16:50.976Z,3.00
2019-03-03T23:19:53.382Z,2.77
2019-03-03T23:22:58.083Z,3.55
2019-03-03T23:25:48.377Z,3.00
2019-03-03T23:28:19.072Z,2.72
2019-03-03T23:30:48.986Z,2.98
2019-03-03T23:33:19.940Z,2.50
2019-03-03T23:35:49.461Z,3.00
2019-03-03T23:38:19.049Z,3.90
2019-03-03T23:40:48.645Z,3.05
2019-03-03T23:43:18.488Z,2.70
2019-03-03T23:45:48.033Z,2.90
2019-03-03T23:48:17.617Z,3.17
2019-03-03T23:50:47.250Z,2.72
2019-03-03T23:53:16.816Z,2.80
2019-03-03T23:55:46.341Z,3.80
2019-03-03T23:58:15.843Z,3.20
